createdAt,value
2018-04-22T00:01:19.885Z,26.27
2018-04-22T00:03:45.981Z,22.30
2018-04-22T00:06:12.430Z,19.97
2018-04-22T00:08:38.489Z,23.17
2018-04-22T00:11:05.260Z,23.40
2018-04-22T00:13:31.298Z,24.17
2018-04-22T00:15:57.500Z,23.07
2018-04-22T00:18:23.741Z,25.17
2018-04-22T00:20:49.774Z,24.57
2018-04-22T00:23:15.799Z,22.03
2018-04-22T00:25:41.828Z,22.50
2018-04-22T00:28:07.854Z,21.77
2018-04-22T00:30:33.933Z,23.93
2018-04-22T00:32:59.990Z,22.73
2018-04-22T00:35:26.002Z,23.83
2018-04-22T00:37:52.022Z,28.00
2018-04-22T00:40:18.049Z,25.50
2018-04-22T00:42:44.093Z,22.67
2018-04-22T00:45:10.148Z,24.60
2018-04-22T00:47:36.168Z,24.70
2018-04-22T00:50:02.316Z,24.20
2018-04-22T00:52:28.348Z,26.83
2018-04-22T00:54:54.389Z,24.07
2018-04-22T00:57:20.424Z,28.83
2018-04-22T00:59:46.453Z,23.93
2018-04-22T01:02:12.498Z,23.17
2018-04-22T01:04:39.325Z,23.10
2018-04-22T01:07:05.333Z,24.13
2018-04-22T01:09:31.417Z,23.67
2018-04-22T01:11:57.457Z,25.53
2018-04-22T01:14:23.490Z,21.73
2018-04-22T01:16:49.617Z,24.93
2018-04-22T01:19:16.048Z,25.23
2018-04-22T01:21:42.127Z,25.67
2018-04-22T01:24:08.136Z,24.70
2018-04-22T01:26:34.924Z,24.53
2018-04-22T01:29:00.932Z,24.67
2018-04-22T01:31:26.974Z,25.87
2018-04-22T01:33:53.393Z,24.17
2018-04-22T01:36:19.422Z,22.60
2018-04-22T01:38:45.472Z,24.43
2018-04-22T01:41:11.537Z,22.40
2018-04-22T01:43:37.689Z,24.97
2018-04-22T01:46:03.750Z,26.57
2018-04-22T01:48:29.802Z,28.83
2018-04-22T01:50:55.816Z,27.67
2018-04-22T01:53:21.853Z,25.40
2018-04-22T01:55:47.886Z,27.07
2018-04-22T01:58:14.693Z,25.40
2018-04-22T02:00:41.094Z,25.47
2018-04-22T02:03:07.144Z,25.27
2018-04-22T02:05:33.204Z,23.43
2018-04-22T02:07:59.965Z,25.13
2018-04-22T02:10:25.989Z,22.87
2018-04-22T02:12:52.033Z,24.70
2018-04-22T02:15:18.084Z,26.77
2018-04-22T02:17:44.136Z,24.33
2018-04-22T02:20:10.309Z,27.60
2018-04-22T02:22:36.335Z,23.57
2018-04-22T02:25:02.400Z,25.80
2018-04-22T02:27:28.423Z,23.40
2018-04-22T02:29:54.601Z,26.17
2018-04-22T02:32:20.637Z,27.13
2018-04-22T02:34:46.666Z,24.67
2018-04-22T02:37:12.949Z,26.43
2018-04-22T02:39:39.697Z,24.73
2018-04-22T02:42:05.785Z,25.07
2018-04-22T02:44:31.916Z,25.63
2018-04-22T02:46:57.965Z,24.23
2018-04-22T02:49:23.978Z,26.43
2018-04-22T02:51:50.000Z,26.03
2018-04-22T02:54:16.096Z,23.63
2018-04-22T02:56:42.717Z,26.07
2018-04-22T02:59:09.176Z,22.43
2018-04-22T03:01:35.979Z,27.23
2018-04-22T03:04:02.017Z,26.10
2018-04-22T03:06:28.065Z,26.40
2018-04-22T03:08:54.141Z,30.27
2018-04-22T03:11:20.174Z,27.27
2018-04-22T03:13:46.173Z,26.63
2018-04-22T03:16:12.179Z,26.27
2018-04-22T03:18:38.225Z,27.50
2018-04-22T03:21:04.764Z,26.97
2018-04-22T03:23:30.809Z,27.73
2018-04-22T03:25:56.837Z,26.57
2018-04-22T03:28:22.929Z,26.97
2018-04-22T03:30:49.736Z,26.67
2018-04-22T03:33:16.841Z,26.00
2018-04-22T03:35:42.878Z,27.27
2018-04-22T03:38:08.901Z,28.87
2018-04-22T03:40:34.913Z,30.10
2018-04-22T03:43:00.950Z,28.63
2018-04-22T03:45:27.699Z,26.03
2018-04-22T03:47:53.722Z,24.73
2018-04-22T03:50:19.825Z,26.57
2018-04-22T03:52:46.589Z,28.90
2018-04-22T03:55:12.598Z,29.73
2018-04-22T03:57:38.793Z,27.40
2018-04-22T04:00:04.846Z,26.10
2018-04-22T04:02:30.861Z,27.50
2018-04-22T04:04:56.862Z,26.53
2018-04-22T04:07:22.893Z,28.50
2018-04-22T04:09:49.453Z,26.53
2018-04-22T04:12:15.505Z,27.60
2018-04-22T04:14:42.032Z,25.87
2018-04-22T04:17:08.674Z,27.90
2018-04-22T04:19:47.601Z,30.73
2018-04-22T04:22:25.846Z,28.20
2018-04-22T04:28:03.813Z,26.03
2018-04-22T04:30:31.700Z,27.30
2018-04-22T04:32:58.020Z,26.73
2018-04-22T04:35:24.054Z,30.83
2018-04-22T04:37:50.075Z,28.53
2018-04-22T04:40:16.085Z,27.27
2018-04-22T04:42:42.130Z,26.70
2018-04-22T04:45:08.185Z,29.90
2018-04-22T04:47:34.220Z,28.37
2018-04-22T04:50:00.227Z,28.63
2018-04-22T04:52:26.262Z,30.63
2018-04-22T04:54:52.323Z,30.10
2018-04-22T04:57:18.373Z,27.67
2018-04-22T04:59:44.394Z,29.67
2018-04-22T05:02:10.839Z,31.10
2018-04-22T05:04:36.861Z,28.10
2018-04-22T05:07:02.894Z,29.83
2018-04-22T05:09:28.950Z,30.73
2018-04-22T05:11:54.961Z,30.47
2018-04-22T05:14:21.163Z,33.37
2018-04-22T05:16:47.172Z,30.80
2018-04-22T05:19:13.209Z,32.27
2018-04-22T05:21:39.438Z,30.70
2018-04-22T05:24:05.457Z,32.57
2018-04-22T05:26:31.474Z,32.03
2018-04-22T05:28:57.513Z,30.03
2018-04-22T05:31:23.573Z,31.37
2018-04-22T05:33:50.090Z,29.63
2018-04-22T05:36:16.141Z,31.40
2018-04-22T05:38:42.145Z,30.37
2018-04-22T05:41:08.185Z,32.07
2018-04-22T05:43:34.220Z,31.27
2018-04-22T05:46:00.289Z,31.60
2018-04-22T05:48:26.293Z,33.70
2018-04-22T05:50:52.321Z,32.97
2018-04-22T05:53:18.486Z,31.20
2018-04-22T05:55:44.536Z,32.33
2018-04-22T05:58:10.545Z,32.67
2018-04-22T06:00:36.952Z,33.70
2018-04-22T06:03:02.998Z,33.03
2018-04-22T06:05:29.013Z,34.17
2018-04-22T06:07:55.362Z,34.93
2018-04-22T06:10:21.402Z,31.90
2018-04-22T06:12:47.437Z,33.27
2018-04-22T06:15:14.219Z,32.60
2018-04-22T06:17:40.249Z,33.43
2018-04-22T06:20:06.293Z,31.60
2018-04-22T06:22:32.316Z,33.57
2018-04-22T06:24:58.493Z,37.00
2018-04-22T06:27:24.514Z,35.70
2018-04-22T06:29:50.555Z,34.53
2018-04-22T06:32:16.657Z,36.40
2018-04-22T06:34:43.409Z,37.00
2018-04-22T06:37:09.572Z,33.73
2018-04-22T06:39:35.663Z,36.73
2018-04-22T06:42:01.689Z,43.67
2018-04-22T06:44:27.746Z,40.23
2018-04-22T06:46:53.787Z,38.47
2018-04-22T06:49:20.445Z,37.67
2018-04-22T06:51:46.477Z,38.10
2018-04-22T06:54:12.501Z,46.97
2018-04-22T06:56:39.077Z,39.37
2018-04-22T06:59:05.126Z,39.67
2018-04-22T07:01:31.165Z,38.53
2018-04-22T07:03:57.229Z,39.30
2018-04-22T07:06:23.265Z,38.63
2018-04-22T07:08:49.297Z,39.43
2018-04-22T07:11:16.045Z,38.93
2018-04-22T07:13:42.137Z,42.67
2018-04-22T07:16:08.161Z,43.57
2018-04-22T07:18:35.063Z,41.80
2018-04-22T07:21:01.098Z,40.20
2018-04-22T07:23:27.145Z,38.60
2018-04-22T07:25:53.397Z,42.77
2018-04-22T07:28:19.717Z,44.20
2018-04-22T07:30:45.788Z,41.00
2018-04-22T07:33:11.853Z,40.13
2018-04-22T07:35:37.869Z,42.83
2018-04-22T07:38:03.977Z,43.67
2018-04-22T07:40:30.181Z,40.27
2018-04-22T07:42:56.210Z,43.40
2018-04-22T07:45:22.252Z,41.97
2018-04-22T07:47:48.287Z,40.33
2018-04-22T07:50:14.377Z,46.13
2018-04-22T07:52:40.705Z,43.00
2018-04-22T07:55:06.740Z,48.67
2018-04-22T07:57:32.775Z,44.53
2018-04-22T07:59:58.810Z,45.80
2018-04-22T08:02:24.840Z,50.50
2018-04-22T08:04:50.881Z,46.93
2018-04-22T08:07:17.671Z,47.03
2018-04-22T08:09:43.694Z,45.53
2018-04-22T08:12:09.713Z,50.80
2018-04-22T08:14:35.928Z,45.40
2018-04-22T08:17:02.587Z,45.77
2018-04-22T08:19:28.649Z,45.33
2018-04-22T08:21:55.041Z,47.97
2018-04-22T08:24:21.189Z,42.17
2018-04-22T08:26:47.213Z,47.50
2018-04-22T08:29:13.274Z,45.23
2018-04-22T08:31:39.329Z,43.97
2018-04-22T08:34:05.783Z,47.33
2018-04-22T08:36:31.828Z,41.20
2018-04-22T08:38:57.846Z,44.60
2018-04-22T08:41:23.914Z,43.53
2018-04-22T08:43:50.012Z,43.97
2018-04-22T08:46:16.041Z,46.33
2018-04-22T08:48:42.060Z,43.57
2018-04-22T08:51:08.077Z,44.53
2018-04-22T08:53:34.289Z,41.33
2018-04-22T08:56:00.378Z,43.60
2018-04-22T08:58:26.399Z,44.57
2018-04-22T09:00:52.413Z,42.57
2018-04-22T09:03:18.458Z,44.13
2018-04-22T09:05:44.861Z,42.70
2018-04-22T09:08:10.925Z,40.13
2018-04-22T09:10:36.956Z,44.33
2018-04-22T09:13:03.006Z,45.87
2018-04-22T09:15:29.046Z,53.90
2018-04-22T09:17:55.117Z,43.63
2018-04-22T09:20:21.138Z,46.03
2018-04-22T09:22:47.193Z,44.20
2018-04-22T09:25:13.389Z,41.77
2018-04-22T09:27:39.418Z,41.87
2018-04-22T09:30:05.761Z,46.17
2018-04-22T09:32:31.841Z,44.77
2018-04-22T09:34:57.892Z,46.00
2018-04-22T09:37:24.746Z,43.43
2018-04-22T09:39:50.788Z,44.33
2018-04-22T09:42:17.317Z,45.93
2018-04-22T09:44:44.165Z,43.80
2018-04-22T09:47:10.230Z,41.43
2018-04-22T09:49:36.381Z,45.37
2018-04-22T09:52:02.412Z,39.10
2018-04-22T09:54:28.439Z,38.67
2018-04-22T09:56:54.609Z,39.63
2018-04-22T09:59:20.760Z,35.93
2018-04-22T10:01:46.781Z,37.50
2018-04-22T10:04:12.809Z,34.53
2018-04-22T10:06:39.202Z,32.43
2018-04-22T10:09:05.285Z,30.47
2018-04-22T10:11:32.073Z,33.17
2018-04-22T10:13:58.208Z,29.97
2018-04-22T10:16:24.250Z,24.73
2018-04-22T10:18:50.281Z,28.50
2018-04-22T10:21:16.330Z,26.87
2018-04-22T10:23:42.421Z,21.37
2018-04-22T10:26:08.441Z,22.33
2018-04-22T10:28:34.454Z,19.37
2018-04-22T10:31:00.498Z,20.67
2018-04-22T10:33:26.893Z,19.97
2018-04-22T10:35:53.062Z,18.57
2018-04-22T10:38:19.165Z,18.40
2018-04-22T10:40:45.221Z,19.90
2018-04-22T10:43:11.559Z,17.67
2018-04-22T10:45:37.605Z,15.60
2018-04-22T10:48:03.657Z,16.07
2018-04-22T10:50:29.791Z,21.63
2018-04-22T10:52:55.971Z,15.83
2018-04-22T10:55:22.749Z,16.70
2018-04-22T10:57:49.004Z,20.83
2018-04-22T11:00:15.117Z,15.97
2018-04-22T11:02:41.180Z,15.80
2018-04-22T11:05:07.232Z,17.40
2018-04-22T11:07:33.276Z,14.93
2018-04-22T11:09:59.325Z,12.70
2018-04-22T11:12:25.653Z,13.27
2018-04-22T11:14:51.993Z,14.03
2018-04-22T11:17:18.035Z,10.63
2018-04-22T11:19:44.125Z,13.77
2018-04-22T11:22:10.196Z,11.70
2018-04-22T11:24:36.206Z,9.80
2018-04-22T11:27:02.241Z,10.27
2018-04-22T11:29:28.282Z,10.27
2018-04-22T11:31:54.470Z,8.40
2018-04-22T11:34:20.514Z,15.47
2018-04-22T11:36:46.842Z,11.33
2018-04-22T11:39:12.855Z,8.50
2018-04-22T11:41:39.125Z,9.27
2018-04-22T11:44:05.177Z,8.60
2018-04-22T11:46:31.238Z,9.30
2018-04-22T11:48:57.289Z,10.03
2018-04-22T11:51:23.486Z,11.47
2018-04-22T11:53:49.514Z,10.73
2018-04-22T11:56:15.557Z,12.80
2018-04-22T11:58:41.622Z,11.77
2018-04-22T12:01:07.653Z,10.33
2018-04-22T12:03:33.790Z,7.03
2018-04-22T12:05:59.821Z,7.00
2018-04-22T12:08:25.901Z,9.00
2018-04-22T12:10:51.978Z,12.07
2018-04-22T12:13:18.027Z,10.17
2018-04-22T12:15:44.034Z,13.30
2018-04-22T12:18:10.081Z,15.03
2018-04-22T12:20:36.511Z,11.10
2018-04-22T12:23:02.551Z,10.20
2018-04-22T12:25:29.325Z,13.27
2018-04-22T12:27:55.371Z,10.07
2018-04-22T12:30:21.691Z,12.70
2018-04-22T12:32:47.856Z,14.13
2018-04-22T12:35:13.932Z,9.63
2018-04-22T12:37:40.038Z,10.30
2018-04-22T12:40:06.108Z,8.50
2018-04-22T12:42:32.136Z,8.50
2018-04-22T12:44:58.193Z,10.43
2018-04-22T12:47:24.342Z,16.73
2018-04-22T12:49:50.386Z,10.00
2018-04-22T12:52:16.566Z,8.37
2018-04-22T12:54:42.602Z,13.47
2018-04-22T12:57:08.793Z,11.57
2018-04-22T12:59:34.838Z,7.67
2018-04-22T13:02:00.993Z,7.43
2018-04-22T13:04:27.161Z,5.57
2018-04-22T13:06:53.192Z,7.30
2018-04-22T13:09:19.214Z,7.13
2018-04-22T13:11:45.770Z,8.00
2018-04-22T13:14:12.238Z,10.03
2018-04-22T13:16:38.290Z,7.70
2018-04-22T13:19:04.394Z,8.23
2018-04-22T13:21:30.424Z,5.07
2018-04-22T13:23:56.481Z,8.50
2018-04-22T13:26:22.522Z,6.17
2018-04-22T13:28:48.545Z,8.17
2018-04-22T13:31:14.639Z,6.00
2018-04-22T13:33:40.728Z,7.37
2018-04-22T13:36:06.820Z,7.37
2018-04-22T13:38:32.853Z,4.73
2018-04-22T13:40:58.892Z,6.73
2018-04-22T13:43:24.933Z,5.33
2018-04-22T13:45:51.018Z,7.10
2018-04-22T13:48:17.137Z,5.90
2018-04-22T13:50:43.165Z,7.63
2018-04-22T13:53:09.204Z,6.37
2018-04-22T13:55:35.226Z,7.43
2018-04-22T13:58:01.514Z,10.70
2018-04-22T14:00:27.686Z,6.20
2018-04-22T14:02:53.707Z,7.77
2018-04-22T14:05:19.740Z,7.90
2018-04-22T14:07:45.793Z,5.13
2018-04-22T14:10:11.864Z,4.63
2018-04-22T14:12:38.056Z,7.13
2018-04-22T14:15:04.090Z,6.83
2018-04-22T14:17:30.138Z,5.17
2018-04-22T14:19:56.173Z,4.77
2018-04-22T14:22:22.193Z,4.13
2018-04-22T14:24:48.289Z,8.93
2018-04-22T14:27:14.314Z,5.30
2018-04-22T14:29:40.364Z,7.67
2018-04-22T14:32:06.405Z,9.63
2018-04-22T14:34:32.416Z,9.27
2018-04-22T14:36:59.125Z,6.63
2018-04-22T14:39:25.196Z,10.40
2018-04-22T14:41:51.917Z,5.47
2018-04-22T14:44:30.390Z,8.00
2018-04-22T14:46:56.424Z,6.40
2018-04-22T14:49:22.489Z,9.27
2018-04-22T14:51:48.785Z,7.70
2018-04-22T14:54:14.834Z,8.77
2018-04-22T14:56:40.845Z,9.80
2018-04-22T14:59:06.862Z,12.80
2018-04-22T15:01:33.034Z,8.07
2018-04-22T15:03:59.074Z,10.17
2018-04-22T15:06:25.113Z,7.67
2018-04-22T15:08:51.529Z,9.07
2018-04-22T15:11:17.621Z,15.73
2018-04-22T15:13:44.417Z,15.77
2018-04-22T15:16:10.468Z,9.17
2018-04-22T15:18:36.485Z,15.30
2018-04-22T15:21:02.533Z,11.07
2018-04-22T15:23:29.762Z,10.40
2018-04-22T15:25:55.810Z,10.17
2018-04-22T15:28:21.836Z,10.20
2018-04-22T15:30:47.868Z,10.17
2018-04-22T15:33:13.899Z,8.27
2018-04-22T15:35:39.961Z,8.77
2018-04-22T15:38:06.032Z,11.37
2018-04-22T15:40:32.045Z,9.73
2018-04-22T15:42:58.674Z,8.47
2018-04-22T15:45:25.193Z,11.23
2018-04-22T15:47:51.269Z,9.50
2018-04-22T15:50:17.936Z,10.30
2018-04-22T15:52:44.806Z,8.73
2018-04-22T15:55:10.818Z,10.60
2018-04-22T15:57:36.878Z,21.53
2018-04-22T16:00:02.906Z,10.57
2018-04-22T16:02:29.429Z,9.07
2018-04-22T16:04:55.489Z,10.73
2018-04-22T16:07:21.526Z,14.70
2018-04-22T16:09:48.122Z,7.77
2018-04-22T16:12:14.193Z,21.27
2018-04-22T16:14:40.987Z,8.10
2018-04-22T16:17:07.019Z,9.70
2018-04-22T16:19:33.049Z,11.77
2018-04-22T16:21:59.110Z,8.77
2018-04-22T16:24:25.889Z,8.87
2018-04-22T16:26:51.940Z,12.37
2018-04-22T16:29:17.955Z,8.97
2018-04-22T16:31:44.802Z,8.57
2018-04-22T16:34:10.838Z,17.03
2018-04-22T16:36:36.926Z,29.83
2018-04-22T16:39:02.968Z,21.53
2018-04-22T16:41:29.201Z,15.57
2018-04-22T16:43:55.168Z,12.53
2018-04-22T16:46:21.184Z,11.47
2018-04-22T16:48:47.285Z,11.07
2018-04-22T16:51:13.313Z,12.53
2018-04-22T16:53:39.385Z,11.57
2018-04-22T16:56:05.413Z,12.10
2018-04-22T16:58:31.455Z,11.37
2018-04-22T17:00:58.098Z,12.67
2018-04-22T17:03:24.109Z,11.40
2018-04-22T17:05:50.189Z,11.87
2018-04-22T17:08:16.201Z,13.53
2018-04-22T17:10:42.255Z,12.67
2018-04-22T17:13:09.099Z,10.63
2018-04-22T17:15:35.245Z,14.00
2018-04-22T17:18:01.267Z,16.17
2018-04-22T17:20:27.413Z,16.33
2018-04-22T17:22:53.441Z,12.93
2018-04-22T17:25:19.693Z,12.87
2018-04-22T17:27:45.745Z,12.93
2018-04-22T17:30:12.437Z,12.63
2018-04-22T17:32:38.457Z,11.10
2018-04-22T17:35:04.480Z,16.20
2018-04-22T17:37:30.601Z,12.80
2018-04-22T17:39:56.653Z,13.37
2018-04-22T17:42:22.689Z,12.17
2018-04-22T17:44:48.713Z,13.73
2018-04-22T17:47:14.736Z,11.83
2018-04-22T17:49:40.790Z,12.17
2018-04-22T17:52:06.877Z,15.23
2018-04-22T17:54:32.909Z,16.27
2018-04-22T17:56:58.957Z,13.07
2018-04-22T17:59:25.035Z,14.40
2018-04-22T18:01:51.805Z,16.20
2018-04-22T18:04:17.850Z,16.03
2018-04-22T18:06:43.914Z,13.33
2018-04-22T18:09:09.950Z,16.30
2018-04-22T18:11:36.098Z,15.30
2018-04-22T18:14:02.161Z,13.27
2018-04-22T18:16:28.948Z,17.77
2018-04-22T18:18:55.048Z,17.13
2018-04-22T18:21:21.077Z,16.23
2018-04-22T18:23:47.136Z,15.13
2018-04-22T18:26:13.178Z,15.90
2018-04-22T18:28:39.342Z,16.53
2018-04-22T18:31:05.361Z,13.97
2018-04-22T18:33:32.136Z,17.07
2018-04-22T18:35:58.162Z,16.83
2018-04-22T18:38:24.222Z,18.47
2018-04-22T18:40:50.322Z,16.77
2018-04-22T18:43:16.382Z,18.23
2018-04-22T18:45:42.405Z,21.03
2018-04-22T18:48:08.449Z,17.13
2018-04-22T18:50:34.705Z,17.70
2018-04-22T18:53:00.805Z,17.80
2018-04-22T18:55:26.862Z,19.17
2018-04-22T18:57:52.873Z,18.07
2018-04-22T19:00:18.899Z,22.10
2018-04-22T19:02:44.945Z,19.77
2018-04-22T19:05:11.048Z,20.83
2018-04-22T19:07:37.084Z,19.83
2018-04-22T19:10:03.107Z,20.00
2018-04-22T19:12:29.541Z,20.07
2018-04-22T19:14:55.561Z,22.63
2018-04-22T19:17:21.790Z,20.83
2018-04-22T19:19:47.826Z,20.33
2018-04-22T19:22:14.152Z,19.27
2018-04-22T19:24:40.219Z,21.17
2018-04-22T19:27:06.229Z,20.87
2018-04-22T19:29:32.674Z,18.87
2018-04-22T19:31:58.693Z,19.23
2018-04-22T19:34:24.718Z,20.63
2018-04-22T19:36:51.001Z,20.93
2018-04-22T19:39:17.028Z,20.30
2018-04-22T19:41:43.079Z,18.93
2018-04-22T19:44:09.109Z,19.93
2018-04-22T19:46:35.124Z,19.87
2018-04-22T19:49:01.345Z,18.60
2018-04-22T19:51:27.375Z,21.17
2018-04-22T19:53:53.453Z,22.20
2018-04-22T19:56:20.230Z,20.60
2018-04-22T19:58:46.266Z,19.97
2018-04-22T20:01:12.330Z,20.07
2018-04-22T20:03:38.358Z,21.10
2018-04-22T20:06:05.166Z,19.77
2018-04-22T20:08:31.246Z,20.80
2018-04-22T20:10:57.280Z,19.33
2018-04-22T20:13:23.474Z,19.27
2018-04-22T20:15:49.674Z,24.30
2018-04-22T20:18:15.988Z,23.23
2018-04-22T20:20:42.045Z,21.83
2018-04-22T20:23:08.047Z,22.87
2018-04-22T20:25:34.449Z,23.20
2018-04-22T20:28:00.472Z,23.83
2018-04-22T20:30:27.848Z,23.83
2018-04-22T20:32:54.682Z,22.40
2018-04-22T20:35:20.754Z,24.27
2018-04-22T20:37:46.811Z,24.63
2018-04-22T20:40:12.825Z,25.30
2018-04-22T20:42:38.849Z,24.13
2018-04-22T20:45:05.665Z,24.23
2018-04-22T20:47:31.701Z,25.37
2018-04-22T20:49:58.685Z,28.77
2018-04-22T20:52:24.717Z,26.37
2018-04-22T20:54:50.737Z,26.77
2018-04-22T20:57:16.797Z,26.67
2018-04-22T20:59:42.825Z,24.97
2018-04-22T21:02:08.999Z,25.73
2018-04-22T21:04:35.240Z,26.10
2018-04-22T21:07:01.283Z,25.97
2018-04-22T21:09:27.433Z,27.20
2018-04-22T21:11:53.546Z,26.13
2018-04-22T21:14:19.620Z,25.37
2018-04-22T21:16:45.645Z,25.10
2018-04-22T21:19:12.422Z,27.30
2018-04-22T21:21:38.841Z,24.33
2018-04-22T21:24:04.873Z,26.80
2018-04-22T21:26:30.935Z,27.27
2018-04-22T21:28:56.969Z,27.43
2018-04-22T21:31:23.017Z,27.07
2018-04-22T21:33:49.802Z,31.17
2018-04-22T21:36:16.221Z,29.27
2018-04-22T21:38:42.292Z,29.63
2018-04-22T21:41:08.338Z,28.53
2018-04-22T21:43:35.113Z,33.40
2018-04-22T21:46:01.533Z,30.43
2018-04-22T21:48:27.569Z,31.00
2018-04-22T21:50:53.646Z,31.43
2018-04-22T21:53:19.693Z,31.87
2018-04-22T21:55:45.717Z,30.53
2018-04-22T21:58:12.490Z,32.40
2018-04-22T22:00:38.586Z,31.37
2018-04-22T22:03:05.978Z,31.63
2018-04-22T22:05:32.011Z,33.17
2018-04-22T22:07:58.078Z,31.20
2018-04-22T22:10:24.848Z,32.87
2018-04-22T22:12:50.942Z,31.80
2018-04-22T22:15:17.042Z,35.37
2018-04-22T22:17:43.066Z,36.37
2018-04-22T22:20:09.121Z,33.50
2018-04-22T22:22:35.157Z,36.63
2018-04-22T22:25:01.201Z,36.83
2018-04-22T22:27:27.257Z,40.03
2018-04-22T22:29:54.037Z,42.27
2018-04-22T22:32:20.062Z,45.13
2018-04-22T22:34:46.109Z,43.73
2018-04-22T22:37:12.122Z,33.53
2018-04-22T22:39:38.428Z,31.10
2018-04-22T22:42:04.494Z,27.60
2018-04-22T22:44:30.596Z,25.17
2018-04-22T22:46:56.677Z,24.13
2018-04-22T22:49:22.701Z,22.43
2018-04-22T22:51:49.050Z,18.57
2018-04-22T22:54:15.497Z,22.93
2018-04-22T22:56:41.517Z,18.93
2018-04-22T22:59:07.554Z,15.23
2018-04-22T23:01:33.580Z,14.93
2018-04-22T23:03:59.628Z,13.37
2018-04-22T23:06:25.671Z,11.60
2018-04-22T23:08:51.696Z,12.30
2018-04-22T23:11:17.913Z,12.67
2018-04-22T23:13:43.937Z,13.07
2018-04-22T23:16:10.001Z,13.23
2018-04-22T23:18:36.168Z,14.77
2018-04-22T23:21:02.237Z,16.80
2018-04-22T23:23:28.278Z,13.17
2018-04-22T23:25:54.318Z,15.03
2018-04-22T23:28:20.488Z,17.77
2018-04-22T23:30:46.520Z,15.97
2018-04-22T23:33:12.577Z,13.50
2018-04-22T23:35:38.901Z,18.23
2018-04-22T23:38:04.914Z,17.50
2018-04-22T23:40:30.978Z,22.40
2018-04-22T23:42:57.054Z,21.17
2018-04-22T23:45:23.209Z,25.63
2018-04-22T23:47:49.234Z,17.07
2018-04-22T23:50:15.269Z,23.47
2018-04-22T23:52:41.292Z,23.93
2018-04-22T23:55:07.342Z,23.40
2018-04-22T23:57:33.417Z,23.07
2018-04-22T23:59:59.457Z,27.23
